Edison, NJ (08817)

10:28 AM EDT on June 02, 2015 (GMT -0400)
New Durham Road | | Change Station
CLOSE
Current Station
Personal Weather Station
Location: Edison, NJ
Elevation: 115 ft
Nearby Weather Stations

Elev 115 ft 40.54 °N, 74.38 °W | Updated 8 seconds ago

Overcast
Overcast
51.6 °F
Feels Like 51.6 °F
N
0.0
Wind Variable Wind from East
Gusts 1.0 mph

Today
High -- | Low -- °F
--% Chance of Precip.
Yesterday
High -- | Low -- °F
Precip. -- in
5:28 AM 8:22 PM
Full, 100% visible
Pressure 30.16 in
Visibility 3.0 miles
Clouds Mostly Cloudy 1000 ft
Overcast 1300 ft
Dew Point 51 °F
Humidity 99%
Rainfall 0.14 in
Snow Depth Not available.
UV 2 out of 12
Pollen .90 out of 12
Air Quality Not available.
Flu Activity Sporadic
METAR KLDJ 021415Z AUTO 06004KT 3SM DZ BKN010 OVC013 13/12 A3016 RMK AO2 T01340120

More Conditions Fewer Conditions

Pressure 30.16 in
Visibility 3.0 miles
Clouds Mostly Cloudy 1000 ft
Overcast 1300 ft
Dew Point 51 °F
Humidity 99%
Rainfall 0.14 in
Snow Depth Not available.
UV 2 out of 12
Pollen .90 out of 12
Air Quality Not available.
Flu Activity Sporadic
METAR KLDJ 021415Z AUTO 06004KT 3SM DZ BKN010 OVC013 13/12 A3016 RMK AO2 T01340120

More Conditions Fewer Conditions

10-Day Weather Forecast

Almanac

Astronomy

Jun. 02, 2015 Rise Set
Actual Time
Civil Twilight
Nautical Twilight
Astronomical Twilight
Moon
Length of Visible Light
Length of Day
Tomorrow will be .
, % of the Moon is Illuminated

Today's Extremes

State Highs State Lows

Community

WunderPhotos

Upload Photos

1,825,926 photos uploaded!

WunderBlogs® & News

Nearby

Air Quality

  Air Quality AQ Index Pollutant
Not available.

Snow Depth

Station Depth Elevation

Earthquake Activity

City Distance Mag. Time & Date
Minimum magnitude displayed is 2.5.

Coastal Water Temperatures

Place Temperature

Stations

Nearby Weather Stations

Station Location Temp. Windchill Dew Point Humidity Wind Precip. Elev Updated Type